Time;durP1;ratioP1;P1;durP2;ratioP2;P2;SDS_P1;SDS_P2;PMS_P1;PMS_P2;Temp;Humidity;BMP_temperature;BMP_pressure;BME280_temperature;BME280_humidity;BME280_pressure;Samples;Min_cycle;Max_cycle;Signal;HPM_P1;HPM_P2
2021/03/15 00:02:20;;;;;;;75.23;46.87;;;;;;;2.43;74.04;98250.66;124055;1102;65345;-84
2021/03/15 00:04:46;;;;;;;79.17;45.23;;;;;;;2.39;73.46;98236.77;124025;1102;64905;-84
2021/03/15 00:07:12;;;;;;;75.50;46.33;;;;;;;2.38;73.62;98240.34;124076;1102;65209;-84
2021/03/15 00:09:39;;;;;;;77.37;46.70;;;;;;;2.38;74.01;98239.50;123723;1105;64894;-84
2021/03/15 00:12:06;;;;;;;72.53;44.97;;;;;;;2.37;73.33;98236.02;123807;1102;64908;-84
2021/03/15 00:14:32;;;;;;;73.60;41.93;;;;;;;2.40;74.09;98232.40;124032;1102;64882;-84
2021/03/15 00:16:58;;;;;;;70.33;41.37;;;;;;;2.40;73.53;98235.88;124135;1102;65011;-84
2021/03/15 00:19:25;;;;;;;79.27;45.23;;;;;;;2.45;73.80;98240.92;123725;1102;64979;-85
2021/03/15 00:21:51;;;;;;;81.40;48.33;;;;;;;2.50;73.77;98248.58;123720;1105;64902;-85
2021/03/15 00:24:18;;;;;;;80.17;47.27;;;;;;;2.56;73.62;98249.16;123812;1102;64892;-84
2021/03/15 00:26:44;;;;;;;87.80;51.80;;;;;;;2.59;73.66;98248.17;124035;1102;65017;-85
2021/03/15 00:29:10;;;;;;;87.67;52.37;;;;;;;2.59;73.69;98250.80;123897;1102;65084;-85
2021/03/15 00:31:37;;;;;;;86.50;52.87;;;;;;;2.59;73.72;98243.75;124219;1102;64863;-84
2021/03/15 00:34:03;;;;;;;86.73;51.10;;;;;;;2.62;74.08;98248.02;123863;1102;64909;-85
2021/03/15 00:36:29;;;;;;;77.80;47.07;;;;;;;2.61;73.89;98241.91;123505;1105;64953;-84
2021/03/15 00:38:56;;;;;;;76.60;45.90;;;;;;;2.66;74.43;98240.83;123420;1103;64975;-84
2021/03/15 00:41:22;;;;;;;73.53;44.80;;;;;;;2.70;73.95;98245.03;123882;1101;64905;-84
2021/03/15 00:43:48;;;;;;;71.20;42.77;;;;;;;2.75;74.27;98238.63;123846;1102;64844;-84
2021/03/15 00:46:15;;;;;;;73.03;43.97;;;;;;;2.81;74.46;98238.33;123843;1102;64902;-84
2021/03/15 00:48:41;;;;;;;74.73;45.13;;;;;;;2.87;74.27;98239.84;123528;1102;65023;-84
2021/03/15 00:51:07;;;;;;;79.70;47.30;;;;;;;2.91;74.44;98236.11;123806;1102;65363;-83
2021/03/15 00:53:33;;;;;;;74.40;46.87;;;;;;;2.96;73.96;98230.64;123504;1102;64930;-84
2021/03/15 00:56:00;;;;;;;79.87;50.90;;;;;;;2.97;74.29;98230.55;123571;1102;64905;-83
2021/03/15 00:58:26;;;;;;;79.77;49.93;;;;;;;2.98;73.90;98227.00;123520;1105;64856;-83
2021/03/15 01:00:53;;;;;;;79.55;49.25;;;;;;;2.98;74.43;98226.16;123842;1102;64892;-83
2021/03/15 01:03:20;;;;;;;86.05;49.40;;;;;;;2.96;74.34;98223.59;123467;1102;65352;-84
2021/03/15 01:05:51;;;;;;;74.83;46.83;;;;;;;2.98;73.97;98220.89;123911;1102;65234;-84
2021/03/15 01:08:18;;;;;;;70.47;43.77;;;;;;;2.99;74.10;98218.17;123919;1102;64831;-84
2021/03/15 01:10:46;;;;;;;63.73;43.33;;;;;;;3.02;74.08;98223.28;123619;1102;64880;-84
2021/03/15 01:13:13;;;;;;;66.17;43.83;;;;;;;3.08;74.37;98214.22;123778;1102;64899;-85
2021/03/15 01:15:40;;;;;;;74.53;44.33;;;;;;;3.12;74.27;98221.06;123433;1102;64990;-84
2021/03/15 01:18:07;;;;;;;70.97;45.17;;;;;;;3.15;74.24;98212.16;123845;1102;65027;-85
2021/03/15 01:20:34;;;;;;;65.17;42.90;;;;;;;3.18;73.99;98217.27;123453;1102;64888;-84
2021/03/15 01:23:01;;;;;;;61.70;40.33;;;;;;;3.19;74.11;98209.30;123865;1102;64911;-84
2021/03/15 01:25:36;;;;;;;71.20;43.80;;;;;;;3.21;74.13;98201.31;123495;1102;64912;-85
2021/03/15 01:28:05;;;;;;;71.17;43.27;;;;;;;3.19;74.20;98203.19;123532;1102;64941;-85
2021/03/15 01:30:32;;;;;;;70.00;44.10;;;;;;;3.18;74.48;98197.05;123837;1102;64831;-85
2021/03/15 01:32:59;;;;;;;62.50;40.47;;;;;;;3.18;74.35;98193.57;123435;1102;64863;-84
2021/03/15 01:35:26;;;;;;;57.67;37.33;;;;;;;3.16;74.17;98191.03;123833;1102;64885;-85
2021/03/15 01:37:53;;;;;;;61.57;37.50;;;;;;;3.17;73.99;98190.09;123446;1105;64902;-84
2021/03/15 01:40:20;;;;;;;62.17;38.73;;;;;;;3.20;74.46;98191.72;123804;1102;65024;-84
2021/03/15 01:42:47;;;;;;;59.77;38.73;;;;;;;3.20;74.67;98184.67;123469;1102;65036;-84
2021/03/15 01:45:13;;;;;;;60.05;39.95;;;;;;;3.22;74.57;98188.08;123501;1102;64959;-84
2021/03/15 01:47:42;;;;;;;68.07;40.60;;;;;;;3.23;74.03;98187.14;123497;1102;64969;-84
2021/03/15 01:50:11;;;;;;;65.43;42.93;;;;;;;3.23;74.46;98178.40;123903;1102;64905;-84
2021/03/15 01:52:39;;;;;;;65.37;39.10;;;;;;;3.22;74.42;98184.61;123868;1102;65058;-84
2021/03/15 01:55:08;;;;;;;66.20;41.10;;;;;;;3.20;74.48;98176.77;123426;1102;65362;-83
2021/03/15 01:57:36;;;;;;;64.17;41.97;;;;;;;3.19;74.79;98171.60;123480;1102;64926;-84
2021/03/15 02:00:05;;;;;;;61.07;39.60;;;;;;;3.19;74.44;98171.60;123853;1102;64898;-84
2021/03/15 02:02:35;;;;;;;62.97;37.07;;;;;;;3.22;74.75;98174.92;123823;1101;64905;-84
2021/03/15 02:05:03;;;;;;;51.58;33.48;;;;;;;3.25;74.38;98174.76;123495;1102;64953;-84
2021/03/15 02:07:30;;;;;;;57.33;35.03;;;;;;;3.29;74.90;98168.42;123893;1102;65042;-83
2021/03/15 02:09:58;;;;;;;55.20;35.60;;;;;;;3.32;74.34;98167.41;123825;1101;64891;-84
2021/03/15 02:12:47;;;;;;;54.67;35.67;;;;;;;3.37;74.08;98164.52;123481;1102;65026;-84
2021/03/15 02:15:51;;;;;;;59.03;36.48;;;;;;;3.38;74.14;98171.52;123791;1102;64912;-84
2021/03/15 02:18:44;;;;;;;53.10;34.20;;;;;;;3.37;74.68;98164.52;123783;1102;64834;-84
2021/03/15 02:21:32;;;;;;;49.87;35.53;;;;;;;3.35;74.34;98171.67;123819;1102;64920;-84
2021/03/15 02:24:17;;;;;;;52.63;35.40;;;;;;;3.33;74.40;98169.11;123508;1102;64994;-84
2021/03/15 02:27:00;;;;;;;58.63;36.20;;;;;;;3.31;74.28;98181.49;123801;1102;64873;-84
2021/03/15 02:30:04;;;;;;;44.97;31.53;;;;;;;3.28;74.72;98174.59;123455;1103;64902;-84
2021/03/15 02:32:50;;;;;;;46.33;29.47;;;;;;;3.28;74.69;98171.97;123833;1102;65068;-84
2021/03/15 02:35:20;;;;;;;50.37;31.43;;;;;;;3.34;74.71;98176.06;123471;1103;65011;-84
2021/03/15 02:38:13;;;;;;;52.37;36.97;;;;;;;3.36;74.33;98171.58;123815;1102;64882;-84
2021/03/15 02:41:01;;;;;;;59.47;40.37;;;;;;;3.38;74.85;98174.15;123767;1102;64834;-82
2021/03/15 02:43:33;;;;;;;54.97;37.87;;;;;;;3.37;74.47;98175.94;123821;1102;64902;-83
2021/03/15 02:46:10;;;;;;;55.87;36.77;;;;;;;3.36;74.35;98183.91;123813;1102;65004;-83
2021/03/15 02:48:38;;;;;;;58.13;39.10;;;;;;;3.32;74.60;98183.22;123541;1103;65100;-84
2021/03/15 02:51:06;;;;;;;66.30;45.20;;;;;;;3.29;74.46;98186.86;123482;1102;64933;-83
2021/03/15 02:53:34;;;;;;;59.25;43.40;;;;;;;3.26;74.20;98194.88;123816;1102;64924;-84
2021/03/15 02:56:07;;;;;;;51.53;35.83;;;;;;;3.27;74.43;98187.86;123853;1102;64999;-84
2021/03/15 02:58:34;;;;;;;43.93;31.37;;;;;;;3.24;74.58;98191.50;123475;1102;65059;-84
2021/03/15 03:01:02;;;;;;;50.33;31.23;;;;;;;3.26;74.44;98194.03;123481;1102;64913;-84
2021/03/15 03:03:30;;;;;;;54.77;33.93;;;;;;;3.30;74.49;98198.23;123465;1103;65212;-84
2021/03/15 03:05:58;;;;;;;56.70;35.33;;;;;;;3.31;74.84;98192.02;123446;1102;65016;-84
2021/03/15 03:08:25;;;;;;;54.70;35.73;;;;;;;3.32;74.45;98201.65;123465;1102;65333;-83
2021/03/15 03:10:54;;;;;;;58.43;39.20;;;;;;;3.35;74.56;98200.64;123810;1102;64860;-84
2021/03/15 03:13:23;;;;;;;57.80;38.70;;;;;;;3.37;74.48;98201.39;123832;1102;64994;-84
2021/03/15 03:15:51;;;;;;;56.67;36.13;;;;;;;3.39;74.99;98212.71;123553;1102;64905;-84
2021/03/15 03:18:21;;;;;;;56.55;33.75;;;;;;;3.39;75.13;98216.19;123900;1102;64876;-84
2021/03/15 03:20:53;;;;;;;47.23;31.40;;;;;;;3.37;74.82;98215.44;123880;1101;65071;-83
2021/03/15 03:23:21;;;;;;;50.60;32.35;;;;;;;3.36;74.69;98213.72;123524;1102;65017;-83
2021/03/15 03:25:49;;;;;;;47.83;32.57;;;;;;;3.36;75.04;98212.88;123833;1102;64944;-84
2021/03/15 03:28:18;;;;;;;52.43;33.13;;;;;;;3.37;74.66;98217.20;123810;1102;64905;-84
2021/03/15 03:30:45;;;;;;;48.10;34.70;;;;;;;3.39;74.60;98208.29;123493;1102;64832;-84
2021/03/15 03:33:13;;;;;;;53.07;37.40;;;;;;;3.42;74.54;98217.82;123455;1105;65080;-83
2021/03/15 03:35:42;;;;;;;51.33;36.53;;;;;;;3.41;74.36;98211.70;123853;1102;65071;-85
2021/03/15 03:38:10;;;;;;;51.80;36.00;;;;;;;3.43;74.94;98211.64;123846;1102;64892;-83
2021/03/15 03:40:37;;;;;;;55.90;39.17;;;;;;;3.43;74.88;98209.85;123809;1102;64885;-84
2021/03/15 03:43:04;;;;;;;55.93;40.03;;;;;;;3.38;74.75;98217.13;123441;1102;65050;-84
2021/03/15 03:45:30;;;;;;;58.47;40.47;;;;;;;3.37;74.87;98217.20;123488;1102;64885;-85
2021/03/15 03:47:57;;;;;;;61.77;42.27;;;;;;;3.34;75.09;98217.36;123799;1102;65079;-84
2021/03/15 03:50:27;;;;;;;58.10;40.20;;;;;;;3.33;74.86;98220.93;123500;1102;64891;-84
2021/03/15 03:53:01;;;;;;;;;;;;;;;3.31;74.99;98213.09;123805;1102;64891;-84
2021/03/15 03:55:34;;;;;;;50.50;33.50;;;;;;;3.28;74.97;98215.88;123836;1102;64832;-84
2021/03/15 03:58:01;;;;;;;55.13;34.20;;;;;;;3.28;74.68;98213.25;123845;1102;64911;-84
2021/03/15 04:00:29;;;;;;;53.03;36.30;;;;;;;3.34;74.82;98217.36;123831;1102;64883;-84
2021/03/15 04:03:17;;;;;;;57.60;38.93;;;;;;;3.35;74.57;98214.66;123525;1102;64991;-85
2021/03/15 04:05:50;;;;;;;61.70;37.60;;;;;;;3.39;74.97;98218.83;123821;1102;64905;-84
2021/03/15 04:08:24;;;;;;;59.83;38.13;;;;;;;3.38;74.46;98206.59;123881;1102;64886;-83
2021/03/15 04:10:52;;;;;;;57.70;38.57;;;;;;;3.38;74.61;98203.12;123874;1102;64825;-83
2021/03/15 04:13:23;;;;;;;62.47;38.37;;;;;;;3.37;74.93;98211.93;123862;1102;64802;-84
2021/03/15 04:15:50;;;;;;;63.00;39.50;;;;;;;3.34;74.88;98212.94;123797;1102;64947;-84
2021/03/15 04:18:21;;;;;;;59.13;41.20;;;;;;;3.29;74.40;98213.19;123828;1102;64987;-84
2021/03/15 04:20:57;;;;;;;62.43;39.80;;;;;;;3.28;75.06;98215.88;123532;1102;64946;-84
2021/03/15 04:23:36;;;;;;;52.10;37.87;;;;;;;3.26;75.04;98213.31;123467;1105;64979;-84
2021/03/15 04:26:04;;;;;;;50.13;33.67;;;;;;;3.25;74.99;98213.41;123840;1102;65080;-83
2021/03/15 04:28:33;;;;;;;48.70;33.83;;;;;;;3.26;75.12;98205.41;123781;1102;64893;-85
2021/03/15 04:31:02;;;;;;;54.35;34.80;;;;;;;3.29;74.77;98207.05;123896;1102;64981;-85
2021/03/15 04:33:29;;;;;;;58.43;36.83;;;;;;;3.30;74.95;98206.13;123825;1102;64898;-83
2021/03/15 04:35:56;;;;;;;61.57;40.50;;;;;;;3.33;74.96;98213.03;123861;1102;64894;-85
2021/03/15 04:38:24;;;;;;;63.67;44.47;;;;;;;3.36;75.21;98203.18;123826;1102;65062;-85
2021/03/15 04:40:52;;;;;;;63.10;44.73;;;;;;;3.35;74.52;98211.18;123465;1102;64994;-85
2021/03/15 04:43:20;;;;;;;63.03;41.73;;;;;;;3.33;74.95;98205.13;123839;1102;64937;-85
2021/03/15 04:45:49;;;;;;;64.20;43.67;;;;;;;3.30;75.09;98206.13;123928;1102;64863;-83
2021/03/15 04:48:21;;;;;;;61.05;42.75;;;;;;;3.27;74.65;98199.23;123873;1102;64860;-84
2021/03/15 04:50:56;;;;;;;51.80;34.73;;;;;;;3.26;74.78;98210.69;123858;1102;64937;-84
2021/03/15 04:53:23;;;;;;;53.40;34.35;;;;;;;3.26;75.04;98202.78;123817;1102;65046;-84
2021/03/15 04:55:49;;;;;;;51.83;34.73;;;;;;;3.26;75.14;98213.31;123832;1102;64931;-84
2021/03/15 04:58:18;;;;;;;55.00;37.30;;;;;;;3.26;75.24;98208.05;123841;1102;64907;-84
2021/03/15 05:00:48;;;;;;;62.60;40.05;;;;;;;3.29;75.08;98217.58;123513;1102;64940;-84
2021/03/15 05:03:15;;;;;;;;;;;;;;;3.35;74.85;98216.45;123885;1102;64885;-84
2021/03/15 05:05:43;;;;;;;66.87;41.83;;;;;;;3.33;74.82;98213.03;123465;1102;64978;-84
2021/03/15 05:08:12;;;;;;;71.70;45.40;;;;;;;3.30;74.95;98206.13;123925;1102;64911;-84
2021/03/15 05:10:40;;;;;;;75.33;45.13;;;;;;;3.29;74.48;98209.67;123879;1102;64937;-84
2021/03/15 05:13:07;;;;;;;67.93;45.07;;;;;;;3.27;74.88;98207.14;123818;1102;64940;-85
2021/03/15 05:15:34;;;;;;;68.67;42.47;;;;;;;3.26;74.77;98205.41;123481;1102;65148;-84
2021/03/15 05:18:01;;;;;;;59.97;37.67;;;;;;;3.26;74.64;98210.69;123883;1102;64963;-84
2021/03/15 05:20:29;;;;;;;64.33;37.33;;;;;;;3.24;75.18;98202.03;123512;1102;64940;-84
2021/03/15 05:22:58;;;;;;;60.73;36.87;;;;;;;3.28;75.05;98207.98;123919;1102;64911;-85
2021/03/15 05:25:26;;;;;;;60.95;39.25;;;;;;;3.31;75.11;98207.83;123587;1102;64943;-85
2021/03/15 05:27:52;;;;;;;64.30;40.83;;;;;;;3.34;75.15;98210.30;123788;1102;65068;-85
2021/03/15 05:30:22;;;;;;;63.70;42.00;;;;;;;3.36;75.03;98211.08;123871;1102;64940;-85
2021/03/15 05:32:50;;;;;;;66.60;42.87;;;;;;;3.37;74.60;98211.93;123469;1103;64885;-84
2021/03/15 05:35:19;;;;;;;63.30;41.97;;;;;;;3.35;74.66;98200.64;123535;1102;64891;-84
2021/03/15 05:37:47;;;;;;;62.43;41.53;;;;;;;3.35;75.35;98212.02;123554;1103;64873;-85
2021/03/15 05:40:17;;;;;;;58.20;39.50;;;;;;;3.34;75.15;98212.09;123811;1102;64947;-84
2021/03/15 05:43:10;;;;;;;57.87;40.07;;;;;;;3.34;75.05;98205.03;123538;1102;64877;-85
2021/03/15 05:46:04;;;;;;;61.93;39.40;;;;;;;3.37;74.84;98214.56;123684;1102;64841;-85
2021/03/15 05:48:47;;;;;;;57.23;36.77;;;;;;;3.40;75.01;98212.64;123804;1102;64854;-85
2021/03/15 05:51:41;;;;;;;58.93;37.20;;;;;;;3.46;75.33;98207.06;123834;1102;64885;-83
2021/03/15 05:55:02;;;;;;;65.47;40.93;;;;;;;3.50;75.03;98219.16;123852;1102;65008;-84
2021/03/15 05:58:00;;;;;;;112.80;56.47;;;;;;;3.56;74.76;98219.78;123363;1105;64984;-85
2021/03/15 06:00:55;;;;;;;101.50;53.27;;;;;;;3.63;75.36;98218.52;123866;1102;65327;-84
2021/03/15 06:03:53;;;;;;;100.00;52.35;;;;;;;3.69;74.84;98218.22;123811;1102;64905;-84
2021/03/15 06:06:22;;;;;;;145.40;68.37;;;;;;;3.70;74.71;98218.13;123819;1102;64911;-84
2021/03/15 06:08:55;;;;;;;112.70;63.33;;;;;;;3.73;75.05;98215.32;123518;1102;65020;-84
2021/03/15 06:11:32;;;;;;;96.43;58.87;;;;;;;3.76;74.62;98214.31;123497;1102;65298;-84
2021/03/15 06:14:01;;;;;;;84.87;52.37;;;;;;;3.79;74.89;98223.84;123488;1102;64870;-84
2021/03/15 06:16:29;;;;;;;79.25;50.15;;;;;;;3.83;75.14;98223.61;123854;1102;64987;-84
2021/03/15 06:18:59;;;;;;;83.80;58.07;;;;;;;3.90;74.87;98229.43;123864;1102;64828;-84
2021/03/15 06:21:26;;;;;;;95.67;66.93;;;;;;;3.95;74.93;98228.25;123879;1102;64921;-84
2021/03/15 06:23:57;;;;;;;77.07;56.13;;;;;;;4.02;74.75;98231.41;123495;1105;64918;-84
2021/03/15 06:26:24;;;;;;;73.80;51.40;;;;;;;4.10;74.41;98223.09;123770;1102;64927;-85
2021/03/15 06:28:50;;;;;;;66.93;47.60;;;;;;;4.16;74.07;98226.27;123804;1102;64905;-84
2021/03/15 06:31:17;;;;;;;62.67;47.07;;;;;;;4.24;73.98;98222.34;123495;1102;64942;-84
2021/03/15 06:33:46;;;;;;;61.95;41.40;;;;;;;4.32;73.90;98218.39;123807;1102;64872;-84
2021/03/15 06:36:13;;;;;;;58.77;38.17;;;;;;;4.41;73.54;98227.58;123543;1102;65023;-84
2021/03/15 06:38:42;;;;;;;50.93;35.33;;;;;;;4.51;73.72;98220.88;123491;1105;64905;-84
2021/03/15 06:41:10;;;;;;;48.07;35.03;;;;;;;4.61;73.49;98219.43;123879;1102;64860;-84
2021/03/15 06:43:39;;;;;;;42.40;31.50;;;;;;;4.75;73.34;98215.17;123857;1102;64905;-85
2021/03/15 06:46:06;;;;;;;39.77;30.37;;;;;;;4.89;73.05;98212.59;123474;1102;64947;-85
2021/03/15 06:48:32;;;;;;;43.20;31.00;;;;;;;5.03;72.50;98220.61;123510;1102;64927;-84
2021/03/15 06:50:58;;;;;;;44.33;31.70;;;;;;;5.20;72.42;98216.14;123506;1102;64904;-84
2021/03/15 06:53:37;;;;;;;39.33;29.03;;;;;;;5.35;71.99;98209.98;123493;1104;65285;-84
2021/03/15 06:56:12;;;;;;;43.50;29.33;;;;;;;5.45;71.73;98203.22;123890;1102;64977;-84
2021/03/15 06:58:50;;;;;;;41.13;31.73;;;;;;;5.58;71.71;98211.27;123803;1102;65067;-85
2021/03/15 07:01:19;;;;;;;36.83;26.97;;;;;;;5.67;71.00;98213.36;123821;1102;65336;-84
2021/03/15 07:03:49;;;;;;;40.50;26.97;;;;;;;5.71;70.68;98219.30;123854;1102;64911;-84
2021/03/15 07:06:19;;;;;;;34.60;23.18;;;;;;;5.77;69.90;98215.47;123876;1102;64969;-84
2021/03/15 07:08:47;;;;;;;35.70;25.92;;;;;;;5.80;70.61;98223.20;123509;1102;64912;-84
2021/03/15 07:11:23;;;;;;;37.93;27.43;;;;;;;5.89;70.33;98220.84;123870;1102;64883;-83
2021/03/15 07:13:51;;;;;;;40.03;27.93;;;;;;;6.02;70.30;98223.63;123564;1102;65062;-83
2021/03/15 07:16:26;;;;;;;38.80;28.93;;;;;;;6.12;69.46;98224.77;123945;1102;64898;-84
2021/03/15 07:18:52;;;;;;;40.80;29.77;;;;;;;6.23;70.09;98223.27;124151;1101;64909;-83
2021/03/15 07:21:32;;;;;;;46.93;30.37;;;;;;;6.35;69.74;98222.52;124288;1102;64844;-83
2021/03/15 07:24:00;;;;;;;34.40;25.73;;;;;;;6.46;68.88;98224.50;124449;1102;64863;-83
2021/03/15 07:26:33;;;;;;;33.07;25.10;;;;;;;6.42;67.55;98221.17;124337;1102;64923;-84
2021/03/15 07:29:08;;;;;;;38.77;28.77;;;;;;;6.35;68.10;98231.30;123769;1102;65008;-83
2021/03/15 07:31:34;;;;;;;36.17;27.13;;;;;;;6.42;68.14;98220.33;124261;1102;64904;-84
2021/03/15 07:34:01;;;;;;;36.17;26.77;;;;;;;6.44;67.99;98215.80;124140;1102;64955;-84
2021/03/15 07:36:32;;;;;;;33.58;25.12;;;;;;;6.42;67.64;98217.67;124172;1103;65282;-84
2021/03/15 07:39:06;;;;;;;40.03;27.73;;;;;;;6.30;67.27;98217.50;124154;1102;65049;-83
2021/03/15 07:41:37;;;;;;;36.10;26.97;;;;;;;6.21;67.67;98222.51;123761;1102;64888;-84
2021/03/15 07:44:31;;;;;;;39.57;29.57;;;;;;;6.11;67.40;98223.09;123957;1102;64885;-86
2021/03/15 07:47:03;;;;;;;33.03;25.07;;;;;;;5.97;67.51;98220.41;123835;1102;64905;-85
2021/03/15 07:49:35;;;;;;;43.57;29.13;;;;;;;5.87;67.39;98216.59;123613;1102;65345;-84
2021/03/15 07:52:03;;;;;;;38.80;26.50;;;;;;;5.89;67.69;98220.00;124126;1102;65017;-85
2021/03/15 07:54:32;;;;;;;34.03;25.13;;;;;;;5.98;67.78;98215.97;123976;1102;64905;-82
2021/03/15 07:57:22;;;;;;;37.07;25.77;;;;;;;6.00;66.91;98214.94;123906;1102;64888;-83
2021/03/15 07:59:54;;;;;;;35.43;25.10;;;;;;;6.09;67.34;98222.32;123840;1102;64911;-83
2021/03/15 08:02:22;;;;;;;31.50;22.53;;;;;;;6.25;67.40;98224.03;123929;1102;64983;-83
2021/03/15 08:04:50;;;;;;;30.87;22.57;;;;;;;6.34;67.44;98220.80;123843;1102;65007;-82
2021/03/15 08:07:17;;;;;;;31.43;21.40;;;;;;;6.48;67.05;98217.31;123558;1102;64950;-82
2021/03/15 08:09:47;;;;;;;27.30;21.30;;;;;;;6.63;67.19;98218.13;123818;1102;64936;-83
2021/03/15 08:12:15;;;;;;;26.40;20.47;;;;;;;6.82;66.77;98210.73;123906;1102;64888;-82
2021/03/15 08:14:48;;;;;;;26.37;19.87;;;;;;;6.97;66.45;98203.57;123842;1102;65336;-82
2021/03/15 08:17:19;;;;;;;34.00;24.00;;;;;;;7.07;66.18;98209.13;123868;1102;65371;-82
2021/03/15 08:19:47;;;;;;;28.83;22.03;;;;;;;7.11;66.09;98208.84;123800;1102;64905;-83
2021/03/15 08:22:24;;;;;;;28.87;21.13;;;;;;;7.19;65.60;98206.53;123783;1102;64885;-83
2021/03/15 08:24:55;;;;;;;29.35;20.45;;;;;;;7.24;65.12;98204.43;123776;1102;64915;-84
2021/03/15 08:27:25;;;;;;;26.93;19.33;;;;;;;7.36;65.48;98196.61;123790;1102;64950;-83
2021/03/15 08:29:52;;;;;;;24.23;18.95;;;;;;;7.50;65.17;98198.33;123837;1102;64867;-82
2021/03/15 08:32:19;;;;;;;24.55;18.50;;;;;;;7.62;63.73;98202.81;123831;1101;64943;-82
2021/03/15 08:34:46;;;;;;;24.23;19.17;;;;;;;7.61;62.72;98198.45;123843;1102;64898;-82
2021/03/15 08:37:13;;;;;;;52.13;21.70;;;;;;;7.55;63.77;98196.22;123773;1102;64885;-81
2021/03/15 08:39:40;;;;;;;30.60;21.20;;;;;;;7.68;63.22;98194.44;123818;1102;65045;-82
2021/03/15 08:42:06;;;;;;;23.90;19.33;;;;;;;7.88;63.37;98187.78;123844;1102;64934;-83
2021/03/15 08:44:37;;;;;;;24.43;18.80;;;;;;;8.05;62.79;98187.44;123809;1102;64888;-83
2021/03/15 08:47:04;;;;;;;23.70;18.03;;;;;;;8.19;62.25;98196.24;123816;1102;64915;-82
2021/03/15 08:49:31;;;;;;;25.93;20.37;;;;;;;8.31;61.95;98198.05;123467;1102;64955;-82
2021/03/15 08:51:58;;;;;;;23.57;15.40;;;;;;;8.42;60.83;98186.70;123466;1102;64910;-82
2021/03/15 08:54:42;;;;;;;28.40;15.73;;;;;;;8.49;61.23;98188.81;123864;1102;64985;-83
2021/03/15 08:57:29;;;;;;;28.53;19.17;;;;;;;8.69;61.20;98183.86;123789;1102;64888;-83
2021/03/15 08:59:56;;;;;;;29.23;21.30;;;;;;;8.84;60.33;98185.41;123822;1102;64937;-82
2021/03/15 09:02:43;;;;;;;23.90;19.97;;;;;;;8.75;60.81;98183.44;123791;1102;64917;-83
2021/03/15 09:05:24;;;;;;;24.33;19.70;;;;;;;8.92;61.02;98174.23;123844;1102;65030;-83
2021/03/15 09:07:52;;;;;;;17.73;14.80;;;;;;;8.93;59.82;98175.94;123893;1102;65323;-83
2021/03/15 09:10:25;;;;;;;17.13;13.93;;;;;;;8.69;58.18;98171.45;123792;1102;65014;-82
2021/03/15 09:13:10;;;;;;;18.85;14.75;;;;;;;8.59;58.41;98169.58;123864;1101;64981;-83
2021/03/15 09:15:41;;;;;;;16.23;13.70;;;;;;;8.47;58.19;98173.94;123801;1102;65421;-83
2021/03/15 09:18:40;;;;;;;18.73;15.27;;;;;;;8.48;59.33;98157.92;123500;1102;64914;-82
2021/03/15 09:21:25;;;;;;;20.45;16.27;;;;;;;8.64;58.77;98164.78;123877;1102;64917;-83
2021/03/15 09:23:55;;;;;;;19.77;17.13;;;;;;;8.76;59.05;98155.91;123754;1101;64937;-82
2021/03/15 09:26:24;;;;;;;21.40;15.78;;;;;;;8.83;57.76;98156.31;123883;1101;64936;-83
2021/03/15 09:28:55;;;;;;;20.77;15.63;;;;;;;8.62;57.68;98150.77;123777;1102;64892;-83
2021/03/15 09:31:22;;;;;;;18.07;14.27;;;;;;;8.46;57.47;98154.52;123843;1102;65268;-83
2021/03/15 09:33:49;;;;;;;19.27;15.30;;;;;;;8.26;56.96;98160.36;123876;1102;64934;-83
2021/03/15 09:36:29;;;;;;;19.40;16.00;;;;;;;8.04;57.39;98158.38;123780;1102;64928;-83
2021/03/15 09:38:55;;;;;;;;;;;;;;;7.90;57.11;98160.19;123499;1102;64872;-83
2021/03/15 09:41:26;;;;;;;13.43;11.50;;;;;;;7.80;57.83;98163.59;123845;1102;64895;-83
2021/03/15 09:43:53;;;;;;;13.60;11.13;;;;;;;7.74;57.47;98156.03;123808;1102;65109;-83
2021/03/15 09:46:26;;;;;;;15.63;13.00;;;;;;;7.67;57.95;98158.27;123818;1102;65461;-82
2021/03/15 09:48:53;;;;;;;16.57;11.57;;;;;;;7.64;57.49;98158.48;123591;1102;64946;-83
2021/03/15 09:51:27;;;;;;;15.07;12.57;;;;;;;7.54;57.96;98163.56;123830;1102;64927;-82
2021/03/15 09:53:55;;;;;;;15.37;12.37;;;;;;;7.50;58.41;98153.27;123876;1102;64896;-82
2021/03/15 09:56:25;;;;;;;18.03;14.37;;;;;;;7.50;58.55;98156.75;123845;1102;65338;-83
2021/03/15 09:58:52;;;;;;;17.27;12.93;;;;;;;7.52;58.90;98162.81;123815;1102;65049;-83
2021/03/15 10:01:21;;;;;;;18.60;13.43;;;;;;;7.55;58.52;98167.89;123486;1102;65004;-82
2021/03/15 10:03:55;;;;;;;19.50;13.40;;;;;;;7.56;58.67;98160.81;123858;1101;64857;-83
2021/03/15 10:06:26;;;;;;;14.03;10.93;;;;;;;7.48;58.07;98154.22;123486;1103;64898;-83
2021/03/15 10:08:55;;;;;;;15.60;11.90;;;;;;;7.47;57.75;98156.97;123492;1102;65011;-82
2021/03/15 10:11:22;;;;;;;18.27;13.30;;;;;;;7.40;57.11;98156.55;123853;1102;64902;-83
2021/03/15 10:14:03;;;;;;;20.50;13.03;;;;;;;7.37;57.80;98150.58;123844;1102;65301;-83
2021/03/15 10:16:29;;;;;;;22.85;14.00;;;;;;;7.38;57.47;98152.30;123884;1102;64892;-83
2021/03/15 10:18:56;;;;;;;20.13;14.83;;;;;;;7.43;58.12;98150.19;123826;1102;64985;-82
2021/03/15 10:21:25;;;;;;;17.00;14.23;;;;;;;7.53;58.31;98155.70;123748;1102;64841;-83
2021/03/15 10:23:51;;;;;;;19.10;13.47;;;;;;;7.61;57.71;98146.29;123811;1102;64893;-83
2021/03/15 10:26:18;;;;;;;19.00;15.03;;;;;;;7.69;57.87;98149.27;123473;1102;64883;-82
2021/03/15 10:28:50;;;;;;;20.37;14.77;;;;;;;7.78;57.92;98142.46;123480;1104;65011;-82
2021/03/15 10:31:21;;;;;;;20.00;15.50;;;;;;;7.88;57.98;98142.68;123844;1102;65004;-82
2021/03/15 10:33:49;;;;;;;17.30;14.77;;;;;;;7.95;57.95;98135.97;123804;1102;64979;-83
2021/03/15 10:36:20;;;;;;;20.30;14.80;;;;;;;8.05;57.92;98134.37;123470;1102;64891;-82
2021/03/15 10:38:48;;;;;;;21.13;15.60;;;;;;;8.14;57.90;98135.55;123840;1102;64886;-82
2021/03/15 10:41:16;;;;;;;22.10;15.30;;;;;;;8.28;58.16;98129.25;123857;1102;64883;-82
2021/03/15 10:43:44;;;;;;;20.63;15.50;;;;;;;8.41;57.83;98119.48;123902;1102;64934;-82
2021/03/15 10:46:18;;;;;;;19.23;15.30;;;;;;;8.52;57.13;98119.54;123886;1102;65025;-82
2021/03/15 10:48:45;;;;;;;18.13;15.10;;;;;;;8.64;57.23;98117.81;123816;1102;64997;-82
2021/03/15 10:51:11;;;;;;;19.43;14.70;;;;;;;8.76;56.65;98124.87;123886;1102;64914;-83
2021/03/15 10:53:50;;;;;;;18.63;14.60;;;;;;;8.84;56.52;98111.02;123493;1102;64936;-81
2021/03/15 10:56:18;;;;;;;18.75;15.30;;;;;;;8.98;56.53;98108.20;123495;1101;64869;-81
2021/03/15 10:58:45;;;;;;;17.60;13.67;;;;;;;9.14;55.73;98104.41;123778;1102;65134;-83
2021/03/15 11:01:11;;;;;;;19.30;14.90;;;;;;;9.25;55.91;98101.77;123831;1102;64892;-82
2021/03/15 11:03:38;;;;;;;21.77;15.43;;;;;;;9.37;54.80;98103.51;123491;1102;65077;-82
2021/03/15 11:06:09;;;;;;;19.10;15.43;;;;;;;9.43;55.33;98102.19;123829;1101;65384;-83
2021/03/15 11:08:37;;;;;;;17.40;14.37;;;;;;;9.50;55.09;98100.72;123839;1102;65393;-82
2021/03/15 11:11:21;;;;;;;18.23;15.03;;;;;;;9.60;54.84;98098.21;123866;1102;64975;-82
2021/03/15 11:13:50;;;;;;;19.83;16.47;;;;;;;9.72;55.30;98091.11;123789;1102;64886;-82
2021/03/15 11:16:27;;;;;;;17.90;16.07;;;;;;;9.74;54.33;98087.36;123852;1102;64879;-82
2021/03/15 11:19:05;;;;;;;17.80;15.90;;;;;;;9.78;54.17;98083.48;123854;1102;64930;-82
2021/03/15 11:21:36;;;;;;;18.07;15.07;;;;;;;9.78;54.24;98086.14;123770;1102;64925;-82
2021/03/15 11:24:04;;;;;;;18.77;15.53;;;;;;;9.79;54.52;98089.64;123800;1101;64953;-83
2021/03/15 11:26:52;;;;;;;16.90;15.07;;;;;;;9.77;54.46;98087.13;123495;1102;64914;-82
2021/03/15 11:29:37;;;;;;;23.20;15.33;;;;;;;9.81;54.88;98082.39;123892;1102;64937;-82
2021/03/15 11:32:12;;;;;;;19.57;14.57;;;;;;;9.77;54.46;98078.27;123814;1102;64825;-82
2021/03/15 11:35:04;;;;;;;18.43;13.77;;;;;;;9.65;54.44;98077.42;123851;1102;64940;-83
2021/03/15 11:37:34;;;;;;;22.53;15.70;;;;;;;9.51;54.54;98075.00;123796;1102;65045;-83